createdAt,value
2018-10-01T00:00:38.461Z,31.53
2018-10-01T00:03:06.926Z,28.53
2018-10-01T00:05:36.082Z,28.60
2018-10-01T00:08:05.963Z,30.03
2018-10-01T00:10:34.832Z,38.23
2018-10-01T00:13:03.746Z,29.40
2018-10-01T00:15:32.036Z,31.20
2018-10-01T00:18:00.855Z,26.37
2018-10-01T00:20:34.568Z,24.20
2018-10-01T00:23:03.060Z,26.40
2018-10-01T00:25:31.564Z,26.80
2018-10-01T00:27:59.859Z,23.73
2018-10-01T00:30:28.145Z,29.57
2018-10-01T00:32:56.687Z,29.72
2018-10-01T00:35:25.166Z,31.20
2018-10-01T00:37:53.484Z,27.70
2018-10-01T00:40:22.092Z,25.40
2018-10-01T00:42:50.663Z,29.60
2018-10-01T00:45:18.948Z,27.77
2018-10-01T00:47:47.477Z,30.87
2018-10-01T00:50:16.109Z,27.33
2018-10-01T00:52:44.669Z,28.73
2018-10-01T00:55:12.995Z,29.60
2018-10-01T00:57:41.592Z,36.37
2018-10-01T01:00:10.172Z,26.07
2018-10-01T01:02:38.720Z,29.15
2018-10-01T01:05:07.008Z,27.17
2018-10-01T01:07:35.575Z,29.42
2018-10-01T01:10:04.337Z,29.00
2018-10-01T01:12:32.639Z,22.37
2018-10-01T01:15:01.533Z,31.77
2018-10-01T01:17:30.076Z,26.30
2018-10-01T01:19:58.611Z,25.13
2018-10-01T01:22:27.199Z,32.50
2018-10-01T01:24:55.586Z,33.63
2018-10-01T01:27:24.179Z,36.13
2018-10-01T01:29:52.933Z,34.27
2018-10-01T01:32:21.492Z,44.23
2018-10-01T01:34:50.110Z,38.95
2018-10-01T01:37:18.684Z,47.58
2018-10-01T01:39:47.446Z,43.28
2018-10-01T01:42:16.342Z,42.17
2018-10-01T01:44:45.599Z,43.78
2018-10-01T01:47:14.499Z,44.70
2018-10-01T01:49:42.840Z,41.93
2018-10-01T01:52:11.134Z,39.23
2018-10-01T01:54:39.418Z,43.33
2018-10-01T01:57:08.015Z,49.42
2018-10-01T01:59:36.609Z,48.70
2018-10-01T02:02:05.227Z,41.63
2018-10-01T02:04:33.814Z,54.20
2018-10-01T02:07:02.435Z,53.17
2018-10-01T02:09:30.960Z,43.43
2018-10-01T02:11:59.669Z,47.57
2018-10-01T02:14:27.936Z,54.50
2018-10-01T02:16:56.415Z,49.83
2018-10-01T02:19:25.279Z,45.23
2018-10-01T02:21:53.571Z,49.40
2018-10-01T02:24:22.126Z,48.53
2018-10-01T02:26:50.532Z,49.03
2018-10-01T02:29:19.124Z,54.30
2018-10-01T02:31:47.590Z,61.43
2018-10-01T02:34:16.235Z,59.75
2018-10-01T02:36:44.523Z,57.03
2018-10-01T02:39:13.907Z,61.00
2018-10-01T02:41:42.276Z,56.13
2018-10-01T02:44:10.644Z,60.07
2018-10-01T02:46:39.116Z,62.57
2018-10-01T02:49:07.396Z,60.73
2018-10-01T02:51:41.048Z,59.20
2018-10-01T02:54:14.717Z,59.97
2018-10-01T02:56:43.264Z,59.80
2018-10-01T02:59:11.810Z,63.13
2018-10-01T03:01:40.135Z,73.30
2018-10-01T03:04:08.620Z,65.57
2018-10-01T03:06:37.146Z,61.00
2018-10-01T03:09:09.884Z,67.93
2018-10-01T03:11:38.455Z,82.27
2018-10-01T03:14:07.105Z,76.90
2018-10-01T03:16:36.113Z,64.70
2018-10-01T03:19:04.728Z,74.20
2018-10-01T03:21:33.280Z,75.92
2018-10-01T03:24:01.792Z,71.23
2018-10-01T03:26:30.397Z,62.83
2018-10-01T03:28:59.081Z,74.50
2018-10-01T03:31:27.536Z,72.03
2018-10-01T03:33:56.388Z,85.10
2018-10-01T03:36:25.426Z,67.80
2018-10-01T03:38:53.766Z,88.47
2018-10-01T03:41:22.097Z,80.43
2018-10-01T03:43:50.690Z,85.00
2018-10-01T03:46:19.030Z,77.40
2018-10-01T03:48:47.627Z,81.00
2018-10-01T03:51:16.124Z,66.00
2018-10-01T03:53:45.052Z,69.80
2018-10-01T03:56:13.537Z,71.20
2018-10-01T03:58:41.907Z,75.10
2018-10-01T04:01:10.787Z,79.60
2018-10-01T04:03:39.131Z,67.77
2018-10-01T04:06:07.904Z,74.07
2018-10-01T04:08:36.276Z,73.30
2018-10-01T04:11:04.850Z,74.83
2018-10-01T04:13:33.131Z,73.00
2018-10-01T04:16:01.433Z,82.80
2018-10-01T04:18:29.706Z,78.00
2018-10-01T04:20:58.160Z,88.57
2018-10-01T04:23:26.485Z,75.40
2018-10-01T04:25:55.093Z,72.78
2018-10-01T04:28:23.458Z,88.77
2018-10-01T04:30:51.917Z,86.90
2018-10-01T04:33:20.212Z,105.90
2018-10-01T04:35:48.790Z,103.53
2018-10-01T04:38:17.268Z,90.67
2018-10-01T04:40:45.852Z,88.70
2018-10-01T04:43:14.323Z,73.47
2018-10-01T04:45:42.937Z,85.13
2018-10-01T04:48:11.473Z,83.67
2018-10-01T04:50:40.048Z,84.28
2018-10-01T04:53:08.614Z,71.60
2018-10-01T04:55:37.376Z,80.43
2018-10-01T04:58:05.742Z,88.93
2018-10-01T05:00:34.485Z,70.83
2018-10-01T05:03:03.036Z,65.22
2018-10-01T05:05:31.303Z,57.40
2018-10-01T05:07:59.846Z,57.20
2018-10-01T05:10:28.109Z,52.77
2018-10-01T05:12:56.604Z,51.90
2018-10-01T05:15:25.060Z,48.67
2018-10-01T05:17:53.346Z,53.37
2018-10-01T05:20:21.667Z,54.63
2018-10-01T05:22:50.322Z,54.43
2018-10-01T05:25:18.822Z,49.93
2018-10-01T05:27:47.112Z,48.57
2018-10-01T05:30:15.712Z,55.13
2018-10-01T05:32:44.252Z,53.00
2018-10-01T05:35:12.925Z,57.07
2018-10-01T05:37:41.484Z,53.93
2018-10-01T05:40:09.787Z,54.70
2018-10-01T05:42:38.135Z,64.77
2018-10-01T05:45:06.468Z,50.57
2018-10-01T05:47:34.858Z,55.80
2018-10-01T05:50:03.276Z,66.07
2018-10-01T05:52:31.878Z,59.40
2018-10-01T05:55:00.378Z,52.90
2018-10-01T05:57:28.703Z,48.67
2018-10-01T05:59:57.571Z,46.83
2018-10-01T06:02:25.853Z,42.70
2018-10-01T06:04:54.523Z,45.50
2018-10-01T06:07:23.180Z,45.37
2018-10-01T06:09:51.796Z,42.43
2018-10-01T06:12:20.078Z,40.57
2018-10-01T06:14:48.559Z,47.50
2018-10-01T06:17:16.823Z,48.70
2018-10-01T06:19:45.079Z,42.20
2018-10-01T06:22:13.557Z,44.13
2018-10-01T06:24:41.801Z,41.20
2018-10-01T06:27:10.376Z,43.73
2018-10-01T06:29:38.940Z,48.90
2018-10-01T06:32:07.506Z,50.50
2018-10-01T06:34:35.798Z,47.30
2018-10-01T06:37:04.343Z,55.67
2018-10-01T06:39:32.913Z,52.70
2018-10-01T06:42:01.504Z,48.63
2018-10-01T06:44:31.062Z,58.23
2018-10-01T06:46:59.662Z,51.17
2018-10-01T06:49:28.192Z,55.57
2018-10-01T06:51:56.552Z,42.80
2018-10-01T06:54:24.867Z,42.70
2018-10-01T06:56:53.124Z,46.17
2018-10-01T06:59:21.411Z,41.77
2018-10-01T07:01:50.045Z,43.80
2018-10-01T07:04:18.702Z,44.97
2018-10-01T07:06:47.067Z,38.27
2018-10-01T07:09:15.420Z,43.33
2018-10-01T07:11:44.062Z,45.58
2018-10-01T07:14:12.460Z,36.27
2018-10-01T07:16:41.050Z,48.27
2018-10-01T07:19:09.605Z,39.48
2018-10-01T07:21:38.191Z,46.00
2018-10-01T07:24:06.689Z,42.33
2018-10-01T07:26:35.248Z,39.13
2018-10-01T07:29:03.864Z,36.47
2018-10-01T07:31:32.172Z,42.37
2018-10-01T07:34:00.457Z,41.37
2018-10-01T07:36:28.818Z,50.80
2018-10-01T07:38:57.149Z,45.37
2018-10-01T07:41:25.571Z,32.33
2018-10-01T07:43:54.143Z,30.90
2018-10-01T07:46:22.879Z,29.20
2018-10-01T07:48:51.139Z,25.33
2018-10-01T07:51:20.009Z,27.77
2018-10-01T07:53:48.347Z,25.23
2018-10-01T07:56:16.623Z,30.30
2018-10-01T07:58:45.277Z,22.90
2018-10-01T08:01:13.834Z,24.15
2018-10-01T08:03:42.443Z,20.87
2018-10-01T08:06:10.940Z,19.90
2018-10-01T08:08:39.342Z,26.10
2018-10-01T08:11:08.031Z,18.77
2018-10-01T08:13:36.308Z,20.33
2018-10-01T08:16:05.094Z,28.95
2018-10-01T08:18:33.484Z,20.47
2018-10-01T08:21:01.820Z,20.63
2018-10-01T08:23:30.752Z,19.65
2018-10-01T08:25:59.253Z,23.23
2018-10-01T08:28:27.717Z,23.07
2018-10-01T08:30:56.295Z,30.93
2018-10-01T08:33:25.264Z,27.47
2018-10-01T08:35:53.844Z,20.75
2018-10-01T08:38:22.392Z,26.50
2018-10-01T08:40:51.387Z,24.20
2018-10-01T08:43:20.049Z,23.47
2018-10-01T08:45:48.633Z,20.70
2018-10-01T08:48:18.015Z,23.13
2018-10-01T08:51:16.889Z,20.55
2018-10-01T08:54:48.684Z,18.85
2018-10-01T08:57:17.204Z,21.87
2018-10-01T08:59:45.774Z,22.53
2018-10-01T09:02:14.761Z,22.67
2018-10-01T09:04:43.251Z,23.77
2018-10-01T09:07:11.932Z,27.55
2018-10-01T09:09:40.372Z,29.70
2018-10-01T09:12:09.280Z,21.57
2018-10-01T09:14:37.636Z,24.33
2018-10-01T09:17:06.376Z,21.63
2018-10-01T09:19:35.120Z,31.80
2018-10-01T09:22:04.137Z,29.18
2018-10-01T09:24:32.427Z,27.63
2018-10-01T09:27:00.996Z,28.87
2018-10-01T09:29:29.317Z,31.13
2018-10-01T09:31:58.015Z,26.45
2018-10-01T09:34:26.646Z,23.30
2018-10-01T09:36:54.988Z,20.33
2018-10-01T09:39:23.311Z,24.67
2018-10-01T09:41:51.623Z,23.43
2018-10-01T09:44:19.971Z,24.40
2018-10-01T09:46:48.408Z,26.83
2018-10-01T09:49:17.048Z,22.83
2018-10-01T09:51:45.473Z,23.30
2018-10-01T09:54:14.020Z,14.83
2018-10-01T09:56:43.006Z,19.57
2018-10-01T09:59:11.660Z,21.23
2018-10-01T10:01:40.215Z,25.12
2018-10-01T10:04:08.746Z,16.00
2018-10-01T10:06:37.168Z,21.80
2018-10-01T10:09:08.504Z,16.30
2018-10-01T10:11:36.823Z,19.73
2018-10-01T10:14:05.308Z,15.40
2018-10-01T10:16:34.168Z,23.42
2018-10-01T10:19:02.651Z,21.03
2018-10-01T10:21:31.167Z,19.93
2018-10-01T10:23:59.491Z,17.83
2018-10-01T10:26:28.179Z,19.53
2018-10-01T10:28:56.624Z,15.30
2018-10-01T10:31:24.906Z,22.50
2018-10-01T10:33:53.381Z,20.17
2018-10-01T10:36:21.767Z,21.80
2018-10-01T10:38:50.066Z,26.37
2018-10-01T10:41:18.622Z,17.90
2018-10-01T10:43:47.557Z,20.88
2018-10-01T10:46:15.908Z,24.77
2018-10-01T10:48:44.614Z,18.10
2018-10-01T10:51:13.191Z,17.40
2018-10-01T10:53:41.825Z,17.77
2018-10-01T10:56:10.315Z,18.37
2018-10-01T10:58:38.943Z,21.17
2018-10-01T11:01:07.523Z,24.47
2018-10-01T11:03:35.788Z,20.73
2018-10-01T11:06:04.308Z,23.43
2018-10-01T11:08:32.854Z,17.17
2018-10-01T11:11:01.447Z,22.77
2018-10-01T11:13:29.743Z,19.53
2018-10-01T11:15:58.053Z,24.00
2018-10-01T11:18:26.567Z,17.33
2018-10-01T11:20:55.195Z,20.73
2018-10-01T11:23:23.767Z,16.82
2018-10-01T11:25:52.338Z,23.30
2018-10-01T11:28:20.681Z,18.67
2018-10-01T11:30:49.280Z,23.30
2018-10-01T11:33:18.083Z,14.70
2018-10-01T11:35:46.498Z,16.80
2018-10-01T11:38:14.997Z,22.80
2018-10-01T11:40:43.505Z,16.80
2018-10-01T11:43:11.776Z,18.60
2018-10-01T11:45:40.720Z,15.40
2018-10-01T11:48:09.243Z,14.90
2018-10-01T11:50:38.552Z,17.77
2018-10-01T11:53:07.151Z,17.30
2018-10-01T11:55:35.814Z,16.95
2018-10-01T11:58:04.404Z,14.07
2018-10-01T12:00:32.912Z,15.97
2018-10-01T12:03:01.508Z,25.50
2018-10-01T12:05:29.996Z,17.43
2018-10-01T12:07:58.345Z,17.60
2018-10-01T12:10:26.667Z,17.50
2018-10-01T12:12:55.388Z,13.93
2018-10-01T12:15:24.032Z,18.53
2018-10-01T12:17:52.737Z,18.77
2018-10-01T12:20:21.292Z,23.70
2018-10-01T12:22:49.571Z,18.80
2018-10-01T12:25:17.867Z,14.67
2018-10-01T12:27:46.391Z,15.63
2018-10-01T12:30:14.884Z,19.00
2018-10-01T12:32:43.434Z,18.80
2018-10-01T12:35:11.990Z,20.90
2018-10-01T12:37:40.412Z,23.60
2018-10-01T12:40:09.015Z,18.70
2018-10-01T12:42:37.368Z,20.93
2018-10-01T12:45:06.805Z,20.73
2018-10-01T12:47:35.340Z,19.23
2018-10-01T12:50:04.152Z,21.02
2018-10-01T12:52:32.986Z,20.17
2018-10-01T12:55:01.326Z,20.93
2018-10-01T12:57:29.645Z,17.97
2018-10-01T12:59:58.179Z,20.00
2018-10-01T13:02:26.747Z,20.70
2018-10-01T13:04:55.443Z,24.43
2018-10-01T13:07:23.914Z,29.73
2018-10-01T13:09:52.193Z,22.27
2018-10-01T13:12:20.804Z,20.20
2018-10-01T13:14:49.485Z,23.40
2018-10-01T13:17:18.015Z,17.70
2018-10-01T13:19:46.547Z,27.53
2018-10-01T13:22:15.288Z,19.37
2018-10-01T13:24:43.759Z,21.07
2018-10-01T13:27:12.346Z,28.47
2018-10-01T13:29:40.949Z,25.03
2018-10-01T13:32:09.455Z,25.67
2018-10-01T13:34:37.721Z,29.97
2018-10-01T13:37:06.615Z,28.85
2018-10-01T13:39:35.427Z,26.60
2018-10-01T13:42:04.094Z,30.73
2018-10-01T13:44:32.539Z,25.27
2018-10-01T13:47:00.880Z,27.00
2018-10-01T13:49:29.168Z,23.23
2018-10-01T13:51:58.001Z,23.90
2018-10-01T13:54:26.477Z,28.93
2018-10-01T13:56:55.211Z,23.40
2018-10-01T13:59:23.723Z,23.00
2018-10-01T14:01:52.276Z,27.90
2018-10-01T14:04:20.816Z,23.00
2018-10-01T14:06:49.531Z,24.33
2018-10-01T14:09:17.848Z,25.17
2018-10-01T14:11:46.504Z,29.40
2018-10-01T14:14:14.791Z,29.00
2018-10-01T14:16:43.099Z,27.73
2018-10-01T14:19:11.491Z,30.90
2018-10-01T14:21:39.916Z,25.17
2018-10-01T14:24:08.770Z,28.10
2018-10-01T14:26:37.400Z,37.23
2018-10-01T14:29:06.416Z,31.07
2018-10-01T14:31:34.891Z,29.80
2018-10-01T14:34:03.541Z,32.37
2018-10-01T14:36:32.808Z,26.60
2018-10-01T14:39:03.333Z,28.35
2018-10-01T14:41:31.675Z,32.97
2018-10-01T14:44:00.184Z,31.73
2018-10-01T14:46:29.059Z,32.27
2018-10-01T14:48:57.331Z,22.20
2018-10-01T14:51:26.224Z,33.33
2018-10-01T14:53:54.576Z,35.40
2018-10-01T14:56:23.042Z,31.30
2018-10-01T14:58:51.552Z,26.73
2018-10-01T15:01:20.438Z,33.20
2018-10-01T15:03:48.917Z,26.93
2018-10-01T15:06:17.509Z,27.83
2018-10-01T15:08:46.485Z,31.17
2018-10-01T15:11:14.816Z,27.27
2018-10-01T15:13:43.415Z,24.15
2018-10-01T15:16:11.820Z,24.50
2018-10-01T15:18:40.618Z,27.50
2018-10-01T15:21:09.215Z,32.77
2018-10-01T15:23:37.485Z,26.60
2018-10-01T15:26:06.067Z,22.70
2018-10-01T15:28:34.410Z,25.10
2018-10-01T15:31:02.776Z,25.93
2018-10-01T15:33:31.080Z,25.10
2018-10-01T15:36:00.218Z,18.90
2018-10-01T15:38:28.693Z,23.20
2018-10-01T15:40:57.263Z,24.85
2018-10-01T15:43:25.608Z,22.77
2018-10-01T15:45:53.888Z,17.43
2018-10-01T15:48:22.282Z,21.07
2018-10-01T15:50:50.788Z,18.87
2018-10-01T15:53:19.365Z,18.95
2018-10-01T15:55:47.846Z,20.53
2018-10-01T15:58:16.575Z,21.70
2018-10-01T16:00:45.042Z,18.07
2018-10-01T16:03:13.377Z,23.17
2018-10-01T16:05:41.784Z,29.40
2018-10-01T16:08:10.367Z,25.48
2018-10-01T16:10:38.847Z,30.93
2018-10-01T16:13:07.393Z,26.80
2018-10-01T16:15:35.665Z,23.90
2018-10-01T16:18:03.991Z,23.40
2018-10-01T16:20:32.462Z,23.87
2018-10-01T16:23:01.050Z,28.10
2018-10-01T16:25:29.999Z,33.73
2018-10-01T16:27:58.965Z,23.80
2018-10-01T16:30:27.324Z,21.60
2018-10-01T16:32:55.626Z,22.30
2018-10-01T16:35:24.284Z,24.07
2018-10-01T16:37:53.165Z,30.30
2018-10-01T16:40:21.729Z,26.73
2018-10-01T16:42:50.591Z,26.80
2018-10-01T16:45:18.880Z,29.80
2018-10-01T16:47:47.247Z,25.13
2018-10-01T16:50:17.220Z,25.55
2018-10-01T16:52:52.743Z,25.40
2018-10-01T16:55:21.708Z,30.83
2018-10-01T16:57:50.290Z,22.90
2018-10-01T17:00:18.952Z,28.98
2018-10-01T17:02:47.573Z,25.33
2018-10-01T17:05:16.178Z,24.20
2018-10-01T17:07:44.477Z,26.00
2018-10-01T17:10:12.785Z,24.30
2018-10-01T17:12:41.516Z,29.33
2018-10-01T17:15:10.283Z,20.83
2018-10-01T17:17:38.710Z,23.57
2018-10-01T17:20:08.130Z,19.70
2018-10-01T17:22:36.781Z,25.72
2018-10-01T17:25:05.405Z,16.60
2018-10-01T17:27:33.691Z,25.87
2018-10-01T17:30:02.072Z,18.90
2018-10-01T17:32:30.787Z,17.30
2018-10-01T17:34:59.136Z,21.57
2018-10-01T17:37:27.661Z,18.93
2018-10-01T17:39:56.134Z,19.90
2018-10-01T17:42:24.403Z,19.27
2018-10-01T17:44:52.707Z,19.93
2018-10-01T17:47:21.294Z,20.45
2018-10-01T17:49:49.854Z,41.43
2018-10-01T17:52:18.406Z,21.50
2018-10-01T17:54:47.113Z,21.53
2018-10-01T17:57:15.830Z,15.95
2018-10-01T17:59:44.684Z,23.47
2018-10-01T18:02:13.213Z,24.50
2018-10-01T18:04:41.796Z,20.15
2018-10-01T18:07:10.064Z,16.97
2018-10-01T18:09:38.424Z,21.13
2018-10-01T18:12:07.282Z,18.27
2018-10-01T18:14:35.909Z,17.43
2018-10-01T18:17:04.217Z,17.23
2018-10-01T18:19:32.784Z,13.35
2018-10-01T18:22:01.089Z,13.63
2018-10-01T18:24:29.678Z,13.15
2018-10-01T18:26:57.947Z,16.23
2018-10-01T18:29:26.215Z,16.10
2018-10-01T18:31:54.639Z,11.67
2018-10-01T18:34:23.172Z,12.53
2018-10-01T18:36:51.654Z,10.90
2018-10-01T18:39:22.827Z,18.00
2018-10-01T18:41:51.285Z,10.77
2018-10-01T18:44:19.960Z,14.20
2018-10-01T18:46:48.372Z,17.40
2018-10-01T18:49:17.496Z,10.77
2018-10-01T18:51:46.029Z,15.32
2018-10-01T18:54:15.027Z,10.70
2018-10-01T18:56:43.619Z,17.87
2018-10-01T18:59:12.438Z,12.17
2018-10-01T19:01:41.431Z,11.78
2018-10-01T19:04:10.328Z,13.93
2018-10-01T19:06:38.934Z,15.33
2018-10-01T19:09:09.395Z,12.57
2018-10-01T19:11:38.417Z,15.10
2018-10-01T19:14:07.579Z,12.93
2018-10-01T19:16:36.107Z,11.30
2018-10-01T19:19:05.300Z,15.70
2018-10-01T19:21:33.718Z,14.13
2018-10-01T19:24:02.361Z,15.83
2018-10-01T19:26:31.103Z,10.80
2018-10-01T19:28:59.373Z,10.90
2018-10-01T19:31:28.139Z,11.00
2018-10-01T19:33:56.852Z,12.47
2018-10-01T19:36:25.396Z,11.85
2018-10-01T19:38:53.739Z,9.50
2018-10-01T19:41:22.783Z,13.08
2018-10-01T19:43:51.270Z,9.17
2018-10-01T19:46:20.086Z,13.17
2018-10-01T19:48:48.912Z,12.70
2018-10-01T19:51:17.251Z,12.30
2018-10-01T19:53:45.776Z,14.33
2018-10-01T19:56:14.333Z,14.13
2018-10-01T19:58:42.631Z,12.87
2018-10-01T20:01:11.175Z,12.10
2018-10-01T20:03:39.451Z,10.67
2018-10-01T20:06:07.764Z,10.23
2018-10-01T20:08:36.028Z,9.17
2018-10-01T20:11:04.315Z,8.07
2018-10-01T20:13:32.836Z,10.20
2018-10-01T20:16:01.316Z,13.47
2018-10-01T20:18:29.729Z,9.50
2018-10-01T20:20:58.276Z,10.20
2018-10-01T20:23:26.766Z,10.07
2018-10-01T20:25:55.254Z,13.27
2018-10-01T20:28:23.891Z,6.90
2018-10-01T20:30:52.211Z,9.03
2018-10-01T20:33:20.564Z,12.50
2018-10-01T20:35:48.962Z,9.77
2018-10-01T20:38:17.739Z,13.25
2018-10-01T20:43:49.362Z,14.20
2018-10-01T20:46:17.827Z,11.20
2018-10-01T20:48:46.093Z,9.33
2018-10-01T20:51:14.642Z,10.60
2018-10-01T20:53:43.414Z,12.97
2018-10-01T20:56:12.117Z,11.50
2018-10-01T20:58:40.787Z,8.13
2018-10-01T21:01:09.490Z,12.58
2018-10-01T21:03:38.055Z,14.00
2018-10-01T21:06:06.866Z,10.10
2018-10-01T21:08:35.280Z,8.57
2018-10-01T21:11:03.727Z,10.80
2018-10-01T21:13:32.063Z,8.77
2018-10-01T21:16:00.532Z,10.33
2018-10-01T21:18:29.027Z,12.60
2018-10-01T21:20:57.400Z,10.00
2018-10-01T21:23:26.087Z,8.43
2018-10-01T21:25:54.619Z,9.40
2018-10-01T21:28:23.171Z,6.58
2018-10-01T21:30:52.202Z,9.00
2018-10-01T21:33:20.585Z,10.90
2018-10-01T21:35:49.161Z,13.03
2018-10-01T21:38:17.448Z,14.80
2018-10-01T21:40:45.786Z,12.13
2018-10-01T21:43:14.086Z,15.03
2018-10-01T21:45:42.399Z,8.73
2018-10-01T21:48:10.674Z,10.00
2018-10-01T21:50:39.007Z,13.10
2018-10-01T21:53:07.638Z,8.63
2018-10-01T21:55:36.052Z,10.27
2018-10-01T21:58:04.620Z,13.10
2018-10-01T22:00:38.323Z,11.17
2018-10-01T22:03:06.928Z,11.73
2018-10-01T22:05:35.220Z,16.93
2018-10-01T22:08:03.608Z,10.57
2018-10-01T22:10:32.116Z,13.43
2018-10-01T22:13:00.393Z,11.13
2018-10-01T22:15:59.183Z,16.63
2018-10-01T22:18:27.708Z,13.70
2018-10-01T22:20:56.023Z,10.30
2018-10-01T22:23:24.378Z,12.20
2018-10-01T22:25:52.921Z,14.87
2018-10-01T22:28:21.483Z,12.68
2018-10-01T22:30:49.967Z,12.60
2018-10-01T22:33:18.243Z,14.80
2018-10-01T22:35:46.876Z,16.70
2018-10-01T22:38:15.299Z,14.67
2018-10-01T22:40:43.571Z,9.80
2018-10-01T22:43:13.182Z,22.73
2018-10-01T22:45:41.721Z,13.33
2018-10-01T22:48:10.267Z,15.10
2018-10-01T22:50:38.723Z,13.60
2018-10-01T22:53:07.575Z,16.00
2018-10-01T22:55:35.983Z,12.67
2018-10-01T22:58:04.354Z,10.40
2018-10-01T23:00:32.924Z,18.32
2018-10-01T23:03:01.474Z,12.37
2018-10-01T23:05:29.766Z,12.07
2018-10-01T23:07:58.044Z,11.63
2018-10-01T23:10:26.603Z,15.10
2018-10-01T23:12:55.159Z,11.77
2018-10-01T23:15:23.727Z,17.07
2018-10-01T23:17:52.009Z,14.53
2018-10-01T23:20:20.619Z,12.87
2018-10-01T23:22:49.100Z,15.87
2018-10-01T23:25:17.589Z,13.50
2018-10-01T23:27:46.118Z,17.77
2018-10-01T23:30:14.717Z,13.20
2018-10-01T23:32:43.189Z,19.13
2018-10-01T23:35:11.791Z,17.13
2018-10-01T23:37:40.191Z,11.57
2018-10-01T23:40:08.488Z,15.33
2018-10-01T23:42:36.772Z,13.13
2018-10-01T23:45:05.792Z,9.37
2018-10-01T23:47:34.102Z,13.20
2018-10-01T23:50:03.087Z,11.77
2018-10-01T23:52:31.391Z,13.30
2018-10-01T23:54:59.982Z,14.55
2018-10-01T23:57:28.312Z,12.67
2018-10-01T23:59:56.600Z,11.23
